Time;durP1;ratioP1;P1;durP2;ratioP2;P2;SDS_P1;SDS_P2;PMS_P1;PMS_P2;Temp;Humidity;BMP_temperature;BMP_pressure;BME280_temperature;BME280_humidity;BME280_pressure;Samples;Min_cycle;Max_cycle;Signal;HPM_P1;HPM_P2
2022/03/02 00:00:43;;;;;;;14.6;9.35;;;;;;;-4.15;40.50293;95923.46;;;;
2022/03/02 00:01:44;;;;;;;14.6;9.35;;;;;;;-4.15;40.50293;95923.46;;;;
2022/03/02 00:02:45;;;;;;;13.05;8.950002;;;;;;;-4.24;40.91211;95920.7;;;;
2022/03/02 00:03:45;;;;;;;13.05;8.950002;;;;;;;-4.24;40.91211;95920.7;;;;
2022/03/02 00:04:46;;;;;;;13.05;8.950002;;;;;;;-4.24;40.91211;95920.7;;;;
2022/03/02 00:05:46;;;;;;;13.05;8.950002;;;;;;;-4.24;40.91211;95920.7;;;;
2022/03/02 00:06:47;;;;;;;13.05;8.950002;;;;;;;-4.24;40.91211;95920.7;;;;
2022/03/02 00:07:47;;;;;;;13.05;8.950002;;;;;;;-4.24;40.91211;95920.7;;;;
2022/03/02 00:08:48;;;;;;;13.05;8.950002;;;;;;;-4.24;40.91211;95920.7;;;;
2022/03/02 00:09:48;;;;;;;13.05;8.950002;;;;;;;-4.24;40.91211;95920.7;;;;
2022/03/02 00:10:49;;;;;;;13.05;8.950002;;;;;;;-4.24;40.91211;95920.7;;;;
2022/03/02 00:11:49;;;;;;;13.05;8.950002;;;;;;;-4.24;40.91211;95920.7;;;;
2022/03/02 00:12:50;;;;;;;11.55;8.349998;;;;;;;-4.33;41.32129;95921.48;;;;
2022/03/02 00:13:51;;;;;;;11.55;8.349998;;;;;;;-4.33;41.32129;95921.48;;;;
2022/03/02 00:14:51;;;;;;;11.55;8.349998;;;;;;;-4.33;41.32129;95921.48;;;;
2022/03/02 00:15:51;;;;;;;11.55;8.349998;;;;;;;-4.33;41.32129;95921.48;;;;
2022/03/02 00:16:52;;;;;;;11.55;8.349998;;;;;;;-4.33;41.32129;95921.48;;;;
2022/03/02 00:17:52;;;;;;;11.55;8.349998;;;;;;;-4.33;41.32129;95921.48;;;;
2022/03/02 00:18:53;;;;;;;11.55;8.349998;;;;;;;-4.33;41.32129;95921.48;;;;
2022/03/02 00:19:53;;;;;;;11.55;8.349998;;;;;;;-4.33;41.32129;95921.48;;;;
2022/03/02 00:20:54;;;;;;;11.55;8.349998;;;;;;;-4.33;41.32129;95921.48;;;;
2022/03/02 00:21:55;;;;;;;11.55;8.349998;;;;;;;-4.33;41.32129;95921.48;;;;
2022/03/02 00:22:56;;;;;;;11.55;8.349998;;;;;;;-4.33;41.32129;95921.48;;;;
2022/03/02 00:23:56;;;;;;;11.25;8.550001;;;;;;;-4.44;41.66504;95918.86;;;;
2022/03/02 00:24:57;;;;;;;11.25;8.550001;;;;;;;-4.44;41.66504;95918.86;;;;
2022/03/02 00:25:57;;;;;;;11.25;8.550001;;;;;;;-4.44;41.66504;95918.86;;;;
2022/03/02 00:26:58;;;;;;;11.25;8.550001;;;;;;;-4.44;41.66504;95918.86;;;;
2022/03/02 00:27:59;;;;;;;11.25;8.550001;;;;;;;-4.44;41.66504;95918.86;;;;
2022/03/02 00:28:59;;;;;;;11.25;8.550001;;;;;;;-4.44;41.66504;95918.86;;;;
2022/03/02 00:30:01;;;;;;;11.25;8.550001;;;;;;;-4.44;41.66504;95918.86;;;;
2022/03/02 00:31:02;;;;;;;11.25;8.550001;;;;;;;-4.44;41.66504;95918.86;;;;
2022/03/02 00:32:02;;;;;;;11.25;8.550001;;;;;;;-4.44;41.66504;95918.86;;;;
2022/03/02 00:33:03;;;;;;;11.25;8.550001;;;;;;;-4.44;41.66504;95918.86;;;;
2022/03/02 00:34:03;;;;;;;13.05;8.700001;;;;;;;-4.51;42.04395;95903.7;;;;
2022/03/02 00:35:04;;;;;;;13.05;8.700001;;;;;;;-4.51;42.04395;95903.7;;;;
2022/03/02 00:36:10;;;;;;;13.05;8.700001;;;;;;;-4.51;42.04395;95903.7;;;;
2022/03/02 00:37:12;;;;;;;13.05;8.700001;;;;;;;-4.51;42.04395;95903.7;;;;
2022/03/02 00:38:13;;;;;;;13.05;8.700001;;;;;;;-4.51;42.04395;95903.7;;;;
2022/03/02 00:39:14;;;;;;;13.05;8.700001;;;;;;;-4.51;42.04395;95903.7;;;;
2022/03/02 00:40:14;;;;;;;13.05;8.700001;;;;;;;-4.51;42.04395;95903.7;;;;
2022/03/02 00:41:15;;;;;;;13.05;8.700001;;;;;;;-4.51;42.04395;95903.7;;;;
2022/03/02 00:42:16;;;;;;;13.05;8.700001;;;;;;;-4.51;42.04395;95903.7;;;;
2022/03/02 00:43:16;;;;;;;13.05;8.700001;;;;;;;-4.51;42.04395;95903.7;;;;
2022/03/02 00:44:17;;;;;;;13.05;8.700001;;;;;;;-4.51;42.04395;95903.7;;;;
2022/03/02 00:45:18;;;;;;;11.95;8.349999;;;;;;;-4.56;42.4248;95888.76;;;;
2022/03/02 00:46:19;;;;;;;11.95;8.349999;;;;;;;-4.56;42.4248;95888.76;;;;
2022/03/02 00:47:19;;;;;;;11.95;8.349999;;;;;;;-4.56;42.4248;95888.76;;;;
2022/03/02 00:48:20;;;;;;;11.95;8.349999;;;;;;;-4.56;42.4248;95888.76;;;;
2022/03/02 00:49:24;;;;;;;11.95;8.349999;;;;;;;-4.56;42.4248;95888.76;;;;
2022/03/02 00:50:26;;;;;;;11.95;8.349999;;;;;;;-4.56;42.4248;95888.76;;;;
2022/03/02 00:51:27;;;;;;;11.95;8.349999;;;;;;;-4.56;42.4248;95888.76;;;;
2022/03/02 00:52:28;;;;;;;11.95;8.349999;;;;;;;-4.56;42.4248;95888.76;;;;
2022/03/02 00:53:29;;;;;;;11.95;8.349999;;;;;;;-4.56;42.4248;95888.76;;;;
2022/03/02 00:54:30;;;;;;;11.95;8.349999;;;;;;;-4.56;42.4248;95888.76;;;;
2022/03/02 00:55:31;;;;;;;11.95;8.349999;;;;;;;-4.56;42.4248;95888.76;;;;
2022/03/02 00:56:32;;;;;;;11.95;8.349999;;;;;;;-4.56;42.4248;95888.76;;;;
2022/03/02 00:57:32;;;;;;;11.95;8.349999;;;;;;;-4.56;42.4248;95888.76;;;;
2022/03/02 00:58:33;;;;;;;11.95;8.349999;;;;;;;-4.56;42.4248;95888.76;;;;
2022/03/02 00:59:33;;;;;;;11.95;8.349999;;;;;;;-4.56;42.4248;95888.76;;;;
2022/03/02 01:00:34;;;;;;;11.95;8.349999;;;;;;;-4.56;42.4248;95888.76;;;;
2022/03/02 01:01:40;;;;;;;11.95;8.349999;;;;;;;-4.56;42.4248;95888.76;;;;
2022/03/02 01:02:41;;;;;;;11.95;8.349999;;;;;;;-4.56;42.4248;95888.76;;;;
2022/03/02 01:03:41;;;;;;;11.95;8.349999;;;;;;;-4.56;42.4248;95888.76;;;;
2022/03/02 01:04:42;;;;;;;11.95;8.349999;;;;;;;-4.56;42.4248;95888.76;;;;
2022/03/02 01:05:42;;;;;;;11.95;8.349999;;;;;;;-4.56;42.4248;95888.76;;;;
2022/03/02 01:06:43;;;;;;;11.95;8.349999;;;;;;;-4.56;42.4248;95888.76;;;;
2022/03/02 01:07:43;;;;;;;11.95;8.349999;;;;;;;-4.56;42.4248;95888.76;;;;
2022/03/02 01:08:44;;;;;;;11.95;8.349999;;;;;;;-4.56;42.4248;95888.76;;;;
2022/03/02 01:09:45;;;;;;;11.95;8.349999;;;;;;;-4.56;42.4248;95888.76;;;;
2022/03/02 01:10:45;;;;;;;11.95;8.349999;;;;;;;-4.56;42.4248;95888.76;;;;
2022/03/02 01:11:46;;;;;;;11.95;8.349999;;;;;;;-4.56;42.4248;95888.76;;;;
2022/03/02 01:12:46;;;;;;;11.95;8.349999;;;;;;;-4.56;42.4248;95888.76;;;;
2022/03/02 01:13:47;;;;;;;11.95;8.349999;;;;;;;-4.56;42.4248;95888.76;;;;
2022/03/02 01:14:48;;;;;;;11.95;8.349999;;;;;;;-4.56;42.4248;95888.76;;;;
2022/03/02 01:15:48;;;;;;;11.95;8.349999;;;;;;;-4.56;42.4248;95888.76;;;;
2022/03/02 01:16:48;;;;;;;11.8;8.65;;;;;;;-4.82;43.4502;95874.26;;;;
2022/03/02 01:17:49;;;;;;;11.8;8.65;;;;;;;-4.82;43.4502;95874.26;;;;
2022/03/02 01:18:50;;;;;;;11.8;8.65;;;;;;;-4.82;43.4502;95874.26;;;;
2022/03/02 01:19:50;;;;;;;11.8;8.65;;;;;;;-4.82;43.4502;95874.26;;;;
2022/03/02 01:20:51;;;;;;;11.8;8.65;;;;;;;-4.82;43.4502;95874.26;;;;
2022/03/02 01:21:52;;;;;;;11.8;8.65;;;;;;;-4.82;43.4502;95874.26;;;;
2022/03/02 01:22:52;;;;;;;11.8;8.65;;;;;;;-4.82;43.4502;95874.26;;;;
2022/03/02 01:23:56;;;;;;;11.8;8.65;;;;;;;-4.82;43.4502;95874.26;;;;
2022/03/02 01:24:57;;;;;;;11.8;8.65;;;;;;;-4.82;43.4502;95874.26;;;;
2022/03/02 01:25:57;;;;;;;11.8;8.65;;;;;;;-4.82;43.4502;95874.26;;;;
2022/03/02 01:26:58;;;;;;;11.8;8.65;;;;;;;-4.82;43.4502;95874.26;;;;
2022/03/02 01:27:58;;;;;;;10.75;8.549999;;;;;;;-4.9;43.78613;95872.34;;;;
2022/03/02 01:28:59;;;;;;;10.75;8.549999;;;;;;;-4.9;43.78613;95872.34;;;;
2022/03/02 01:30:00;;;;;;;10.75;8.549999;;;;;;;-4.9;43.78613;95872.34;;;;
2022/03/02 01:31:00;;;;;;;10.75;8.549999;;;;;;;-4.9;43.78613;95872.34;;;;
2022/03/02 01:32:01;;;;;;;10.75;8.549999;;;;;;;-4.9;43.78613;95872.34;;;;
2022/03/02 01:33:04;;;;;;;10.75;8.549999;;;;;;;-4.9;43.78613;95872.34;;;;
2022/03/02 01:34:04;;;;;;;10.75;8.549999;;;;;;;-4.9;43.78613;95872.34;;;;
2022/03/02 01:35:05;;;;;;;10.75;8.549999;;;;;;;-4.9;43.78613;95872.34;;;;
2022/03/02 01:36:06;;;;;;;10.75;8.549999;;;;;;;-4.9;43.78613;95872.34;;;;
2022/03/02 01:37:07;;;;;;;10.75;8.549999;;;;;;;-4.9;43.78613;95872.34;;;;
2022/03/02 01:38:07;;;;;;;10.3;7.7;;;;;;;-4.99;44.19336;95866.53;;;;
2022/03/02 01:39:08;;;;;;;10.3;7.7;;;;;;;-4.99;44.19336;95866.53;;;;
2022/03/02 01:40:09;;;;;;;10.3;7.7;;;;;;;-4.99;44.19336;95866.53;;;;
2022/03/02 01:41:10;;;;;;;10.3;7.7;;;;;;;-4.99;44.19336;95866.53;;;;
2022/03/02 01:42:13;;;;;;;10.3;7.7;;;;;;;-4.99;44.19336;95866.53;;;;
2022/03/02 01:43:14;;;;;;;10.3;7.7;;;;;;;-4.99;44.19336;95866.53;;;;
2022/03/02 01:44:15;;;;;;;10.3;7.7;;;;;;;-4.99;44.19336;95866.53;;;;
2022/03/02 01:45:17;;;;;;;10.3;7.7;;;;;;;-4.99;44.19336;95866.53;;;;
2022/03/02 01:46:17;;;;;;;10.3;7.7;;;;;;;-4.99;44.19336;95866.53;;;;
2022/03/02 01:47:19;;;;;;;10.3;7.7;;;;;;;-4.99;44.19336;95866.53;;;;
2022/03/02 01:48:19;;;;;;;10.3;7.7;;;;;;;-4.99;44.19336;95866.53;;;;
2022/03/02 01:49:20;;;;;;;11.65;8.299998;;;;;;;-5.08;44.48438;95849.77;;;;
2022/03/02 01:50:20;;;;;;;11.65;8.299998;;;;;;;-5.08;44.48438;95849.77;;;;
2022/03/02 01:51:21;;;;;;;11.65;8.299998;;;;;;;-5.08;44.48438;95849.77;;;;
2022/03/02 01:52:22;;;;;;;11.65;8.299998;;;;;;;-5.08;44.48438;95849.77;;;;
2022/03/02 01:53:22;;;;;;;11.65;8.299998;;;;;;;-5.08;44.48438;95849.77;;;;
2022/03/02 01:54:23;;;;;;;11.65;8.299998;;;;;;;-5.08;44.48438;95849.77;;;;
2022/03/02 01:55:23;;;;;;;11.65;8.299998;;;;;;;-5.08;44.48438;95849.77;;;;
2022/03/02 01:56:24;;;;;;;11.65;8.299998;;;;;;;-5.08;44.48438;95849.77;;;;
2022/03/02 01:57:25;;;;;;;11.65;8.299998;;;;;;;-5.08;44.48438;95849.77;;;;
2022/03/02 01:58:26;;;;;;;11.65;8.299998;;;;;;;-5.08;44.48438;95849.77;;;;
2022/03/02 01:59:29;;;;;;;11.65;8.299998;;;;;;;-5.08;44.48438;95849.77;;;;
2022/03/02 02:00:29;;;;;;;10.45;7.7;;;;;;;-5.14;44.74805;95837.1;;;;
2022/03/02 02:01:31;;;;;;;10.45;7.7;;;;;;;-5.14;44.74805;95837.1;;;;
2022/03/02 02:02:32;;;;;;;10.45;7.7;;;;;;;-5.14;44.74805;95837.1;;;;
2022/03/02 02:03:43;;;;;;;10.45;7.7;;;;;;;-5.14;44.74805;95837.1;;;;
2022/03/02 02:04:44;;;;;;;10.45;7.7;;;;;;;-5.14;44.74805;95837.1;;;;
2022/03/02 02:05:45;;;;;;;10.45;7.7;;;;;;;-5.14;44.74805;95837.1;;;;
2022/03/02 02:06:45;;;;;;;10.45;7.7;;;;;;;-5.14;44.74805;95837.1;;;;
2022/03/02 02:07:46;;;;;;;10.45;7.7;;;;;;;-5.14;44.74805;95837.1;;;;
2022/03/02 02:08:46;;;;;;;10.45;7.7;;;;;;;-5.14;44.74805;95837.1;;;;
2022/03/02 02:09:47;;;;;;;10.45;7.7;;;;;;;-5.14;44.74805;95837.1;;;;
2022/03/02 02:10:48;;;;;;;11.15;7.900001;;;;;;;-5.23;45.0498;95825.63;;;;
2022/03/02 02:11:48;;;;;;;11.15;7.900001;;;;;;;-5.23;45.0498;95825.63;;;;
2022/03/02 02:12:49;;;;;;;11.15;7.900001;;;;;;;-5.23;45.0498;95825.63;;;;
2022/03/02 02:13:50;;;;;;;11.15;7.900001;;;;;;;-5.23;45.0498;95825.63;;;;
2022/03/02 02:14:51;;;;;;;11.15;7.900001;;;;;;;-5.23;45.0498;95825.63;;;;
2022/03/02 02:15:52;;;;;;;11.15;7.900001;;;;;;;-5.23;45.0498;95825.63;;;;
2022/03/02 02:16:54;;;;;;;11.15;7.900001;;;;;;;-5.23;45.0498;95825.63;;;;
2022/03/02 02:17:54;;;;;;;11.15;7.900001;;;;;;;-5.23;45.0498;95825.63;;;;
2022/03/02 02:18:55;;;;;;;11.15;7.900001;;;;;;;-5.23;45.0498;95825.63;;;;
2022/03/02 02:19:56;;;;;;;11.15;7.900001;;;;;;;-5.23;45.0498;95825.63;;;;
2022/03/02 02:20:57;;;;;;;11.15;7.900001;;;;;;;-5.23;45.0498;95825.63;;;;
2022/03/02 02:22:01;;;;;;;11.15;7.900001;;;;;;;-5.23;45.0498;95825.63;;;;
2022/03/02 02:23:02;;;;;;;11.15;7.900001;;;;;;;-5.23;45.0498;95825.63;;;;
2022/03/02 02:24:03;;;;;;;11.15;7.900001;;;;;;;-5.23;45.0498;95825.63;;;;
2022/03/02 02:25:04;;;;;;;11.15;7.900001;;;;;;;-5.23;45.0498;95825.63;;;;
2022/03/02 02:26:06;;;;;;;11.15;7.900001;;;;;;;-5.23;45.0498;95825.63;;;;
2022/03/02 02:27:07;;;;;;;11.15;7.900001;;;;;;;-5.23;45.0498;95825.63;;;;
2022/03/02 02:28:08;;;;;;;11.15;7.900001;;;;;;;-5.23;45.0498;95825.63;;;;
2022/03/02 02:29:10;;;;;;;11.15;7.900001;;;;;;;-5.23;45.0498;95825.63;;;;
2022/03/02 02:30:11;;;;;;;11.15;7.900001;;;;;;;-5.23;45.0498;95825.63;;;;
2022/03/02 02:31:14;;;;;;;11.15;7.900001;;;;;;;-5.23;45.0498;95825.63;;;;
2022/03/02 02:32:15;;;;;;;10.55;8.15;;;;;;;-5.35;45.56836;95811.27;;;;
2022/03/02 02:33:16;;;;;;;10.55;8.15;;;;;;;-5.35;45.56836;95811.27;;;;
2022/03/02 02:34:16;;;;;;;10.55;8.15;;;;;;;-5.35;45.56836;95811.27;;;;
2022/03/02 02:35:17;;;;;;;10.55;8.15;;;;;;;-5.35;45.56836;95811.27;;;;
2022/03/02 02:36:18;;;;;;;10.55;8.15;;;;;;;-5.35;45.56836;95811.27;;;;
2022/03/02 02:37:19;;;;;;;10.55;8.15;;;;;;;-5.35;45.56836;95811.27;;;;
2022/03/02 02:38:21;;;;;;;10.55;8.15;;;;;;;-5.35;45.56836;95811.27;;;;
2022/03/02 02:39:22;;;;;;;10.55;8.15;;;;;;;-5.35;45.56836;95811.27;;;;
2022/03/02 02:40:24;;;;;;;10.55;8.15;;;;;;;-5.35;45.56836;95811.27;;;;
2022/03/02 02:41:26;;;;;;;10.55;8.15;;;;;;;-5.35;45.56836;95811.27;;;;
2022/03/02 02:42:27;;;;;;;10.05;7.450001;;;;;;;-5.46;45.84668;95815.67;;;;
2022/03/02 02:43:27;;;;;;;10.05;7.450001;;;;;;;-5.46;45.84668;95815.67;;;;
2022/03/02 02:44:28;;;;;;;10.05;7.450001;;;;;;;-5.46;45.84668;95815.67;;;;
2022/03/02 02:45:29;;;;;;;10.05;7.450001;;;;;;;-5.46;45.84668;95815.67;;;;
2022/03/02 02:46:29;;;;;;;10.05;7.450001;;;;;;;-5.46;45.84668;95815.67;;;;
2022/03/02 02:47:30;;;;;;;10.05;7.450001;;;;;;;-5.46;45.84668;95815.67;;;;
2022/03/02 02:48:31;;;;;;;10.05;7.450001;;;;;;;-5.46;45.84668;95815.67;;;;
2022/03/02 02:49:31;;;;;;;10.05;7.450001;;;;;;;-5.46;45.84668;95815.67;;;;
2022/03/02 02:50:32;;;;;;;10.05;7.450001;;;;;;;-5.46;45.84668;95815.67;;;;
2022/03/02 02:51:34;;;;;;;10.05;7.450001;;;;;;;-5.46;45.84668;95815.67;;;;
2022/03/02 02:52:34;;;;;;;10.05;7.450001;;;;;;;-5.46;45.84668;95815.67;;;;
2022/03/02 02:53:37;;;;;;;10.75;8.249999;;;;;;;-5.55;46.09766;95791.02;;;;
2022/03/02 02:54:37;;;;;;;10.75;8.249999;;;;;;;-5.55;46.09766;95791.02;;;;
2022/03/02 02:55:38;;;;;;;10.75;8.249999;;;;;;;-5.55;46.09766;95791.02;;;;
2022/03/02 02:56:41;;;;;;;10.75;8.249999;;;;;;;-5.55;46.09766;95791.02;;;;
2022/03/02 02:57:41;;;;;;;10.75;8.249999;;;;;;;-5.55;46.09766;95791.02;;;;
2022/03/02 02:58:42;;;;;;;10.75;8.249999;;;;;;;-5.55;46.09766;95791.02;;;;
2022/03/02 02:59:43;;;;;;;10.75;8.249999;;;;;;;-5.55;46.09766;95791.02;;;;
2022/03/02 03:00:44;;;;;;;10.75;8.249999;;;;;;;-5.55;46.09766;95791.02;;;;
2022/03/02 03:01:46;;;;;;;10.75;8.249999;;;;;;;-5.55;46.09766;95791.02;;;;
2022/03/02 03:02:47;;;;;;;10.75;8.249999;;;;;;;-5.55;46.09766;95791.02;;;;
2022/03/02 03:03:50;;;;;;;10.95;8.450002;;;;;;;-5.65;46.42969;95783.97;;;;
2022/03/02 03:04:50;;;;;;;10.95;8.450002;;;;;;;-5.65;46.42969;95783.97;;;;
2022/03/02 03:05:52;;;;;;;10.95;8.450002;;;;;;;-5.65;46.42969;95783.97;;;;
2022/03/02 03:06:52;;;;;;;10.95;8.450002;;;;;;;-5.65;46.42969;95783.97;;;;
2022/03/02 03:07:53;;;;;;;10.95;8.450002;;;;;;;-5.65;46.42969;95783.97;;;;
2022/03/02 03:08:54;;;;;;;10.95;8.450002;;;;;;;-5.65;46.42969;95783.97;;;;
2022/03/02 03:09:55;;;;;;;10.95;8.450002;;;;;;;-5.65;46.42969;95783.97;;;;
2022/03/02 03:10:55;;;;;;;10.95;8.450002;;;;;;;-5.65;46.42969;95783.97;;;;
2022/03/02 03:11:56;;;;;;;10.95;8.450002;;;;;;;-5.65;46.42969;95783.97;;;;
2022/03/02 03:12:56;;;;;;;10.95;8.450002;;;;;;;-5.65;46.42969;95783.97;;;;
2022/03/02 03:13:57;;;;;;;10.95;8.450002;;;;;;;-5.65;46.42969;95783.97;;;;
2022/03/02 03:14:58;;;;;;;11.15;8.4;;;;;;;-5.81;46.78516;95777.8;;;;
2022/03/02 03:15:58;;;;;;;11.15;8.4;;;;;;;-5.81;46.78516;95777.8;;;;
2022/03/02 03:16:59;;;;;;;11.15;8.4;;;;;;;-5.81;46.78516;95777.8;;;;
2022/03/02 03:18:00;;;;;;;11.15;8.4;;;;;;;-5.81;46.78516;95777.8;;;;
2022/03/02 03:19:00;;;;;;;11.15;8.4;;;;;;;-5.81;46.78516;95777.8;;;;
2022/03/02 03:20:01;;;;;;;11.15;8.4;;;;;;;-5.81;46.78516;95777.8;;;;
2022/03/02 03:21:03;;;;;;;11.15;8.4;;;;;;;-5.81;46.78516;95777.8;;;;
2022/03/02 03:22:04;;;;;;;11.15;8.4;;;;;;;-5.81;46.78516;95777.8;;;;
2022/03/02 03:23:05;;;;;;;11.15;8.4;;;;;;;-5.81;46.78516;95777.8;;;;
2022/03/02 03:24:07;;;;;;;11.15;8.4;;;;;;;-5.81;46.78516;95777.8;;;;
2022/03/02 03:25:08;;;;;;;10.45;7.95;;;;;;;-5.85;47.16406;95794.42;;;;
2022/03/02 03:26:10;;;;;;;10.45;7.95;;;;;;;-5.85;47.16406;95794.42;;;;
2022/03/02 03:27:11;;;;;;;10.45;7.95;;;;;;;-5.85;47.16406;95794.42;;;;
2022/03/02 03:28:11;;;;;;;10.45;7.95;;;;;;;-5.85;47.16406;95794.42;;;;
2022/03/02 03:29:12;;;;;;;10.45;7.95;;;;;;;-5.85;47.16406;95794.42;;;;
2022/03/02 03:30:12;;;;;;;10.45;7.95;;;;;;;-5.85;47.16406;95794.42;;;;
2022/03/02 03:31:15;;;;;;;10.45;7.95;;;;;;;-5.85;47.16406;95794.42;;;;
2022/03/02 03:32:16;;;;;;;10.45;7.95;;;;;;;-5.85;47.16406;95794.42;;;;
2022/03/02 03:33:16;;;;;;;10.45;7.95;;;;;;;-5.85;47.16406;95794.42;;;;
2022/03/02 03:34:17;;;;;;;10.45;7.95;;;;;;;-5.85;47.16406;95794.42;;;;
2022/03/02 03:35:17;;;;;;;10.45;7.95;;;;;;;-5.85;47.16406;95794.42;;;;
2022/03/02 03:36:20;;;;;;;11.55;8.15;;;;;;;-5.89;47.44043;95789.94;;;;
2022/03/02 03:37:21;;;;;;;11.55;8.15;;;;;;;-5.89;47.44043;95789.94;;;;
2022/03/02 03:38:21;;;;;;;11.55;8.15;;;;;;;-5.89;47.44043;95789.94;;;;
2022/03/02 03:39:22;;;;;;;11.55;8.15;;;;;;;-5.89;47.44043;95789.94;;;;
2022/03/02 03:40:22;;;;;;;11.55;8.15;;;;;;;-5.89;47.44043;95789.94;;;;
2022/03/02 03:41:23;;;;;;;11.55;8.15;;;;;;;-5.89;47.44043;95789.94;;;;
2022/03/02 03:42:24;;;;;;;11.55;8.15;;;;;;;-5.89;47.44043;95789.94;;;;
2022/03/02 03:43:25;;;;;;;11.55;8.15;;;;;;;-5.89;47.44043;95789.94;;;;
2022/03/02 03:44:25;;;;;;;11.55;8.15;;;;;;;-5.89;47.44043;95789.94;;;;
2022/03/02 03:45:26;;;;;;;11.55;8.15;;;;;;;-5.89;47.44043;95789.94;;;;
2022/03/02 03:46:27;;;;;;;11.55;8.15;;;;;;;-5.89;47.44043;95789.94;;;;
2022/03/02 03:47:27;;;;;;;12.25;8.900002;;;;;;;-5.92;47.68555;95792.74;;;;
2022/03/02 03:48:28;;;;;;;12.25;8.900002;;;;;;;-5.92;47.68555;95792.74;;;;
2022/03/02 03:49:28;;;;;;;12.25;8.900002;;;;;;;-5.92;47.68555;95792.74;;;;
2022/03/02 03:50:29;;;;;;;12.25;8.900002;;;;;;;-5.92;47.68555;95792.74;;;;
2022/03/02 03:51:30;;;;;;;12.25;8.900002;;;;;;;-5.92;47.68555;95792.74;;;;
2022/03/02 03:52:31;;;;;;;12.25;8.900002;;;;;;;-5.92;47.68555;95792.74;;;;
2022/03/02 03:53:32;;;;;;;12.25;8.900002;;;;;;;-5.92;47.68555;95792.74;;;;
2022/03/02 03:54:32;;;;;;;12.25;8.900002;;;;;;;-5.92;47.68555;95792.74;;;;
2022/03/02 03:55:33;;;;;;;12.25;8.900002;;;;;;;-5.92;47.68555;95792.74;;;;
2022/03/02 03:56:33;;;;;;;12.25;8.900002;;;;;;;-5.92;47.68555;95792.74;;;;
2022/03/02 03:57:34;;;;;;;13.55;9.6;;;;;;;-5.9;47.99902;95787.39;;;;
2022/03/02 03:58:35;;;;;;;13.55;9.6;;;;;;;-5.9;47.99902;95787.39;;;;
2022/03/02 03:59:35;;;;;;;13.55;9.6;;;;;;;-5.9;47.99902;95787.39;;;;
2022/03/02 04:00:36;;;;;;;13.55;9.6;;;;;;;-5.9;47.99902;95787.39;;;;
2022/03/02 04:01:37;;;;;;;13.55;9.6;;;;;;;-5.9;47.99902;95787.39;;;;
2022/03/02 04:02:37;;;;;;;13.55;9.6;;;;;;;-5.9;47.99902;95787.39;;;;
2022/03/02 04:03:38;;;;;;;13.55;9.6;;;;;;;-5.9;47.99902;95787.39;;;;
2022/03/02 04:04:38;;;;;;;13.55;9.6;;;;;;;-5.9;47.99902;95787.39;;;;
2022/03/02 04:05:39;;;;;;;13.55;9.6;;;;;;;-5.9;47.99902;95787.39;;;;
2022/03/02 04:06:39;;;;;;;13.55;9.6;;;;;;;-5.9;47.99902;95787.39;;;;
2022/03/02 04:07:40;;;;;;;13.55;9.6;;;;;;;-5.9;47.99902;95787.39;;;;
2022/03/02 04:08:41;;;;;;;11.75;8.75;;;;;;;-5.9;48.3623;95774.25;;;;
2022/03/02 04:09:41;;;;;;;11.75;8.75;;;;;;;-5.9;48.3623;95774.25;;;;
2022/03/02 04:10:42;;;;;;;11.75;8.75;;;;;;;-5.9;48.3623;95774.25;;;;
2022/03/02 04:11:43;;;;;;;11.75;8.75;;;;;;;-5.9;48.3623;95774.25;;;;
2022/03/02 04:12:44;;;;;;;11.75;8.75;;;;;;;-5.9;48.3623;95774.25;;;;
2022/03/02 04:13:45;;;;;;;11.75;8.75;;;;;;;-5.9;48.3623;95774.25;;;;
2022/03/02 04:14:46;;;;;;;11.75;8.75;;;;;;;-5.9;48.3623;95774.25;;;;
2022/03/02 04:15:46;;;;;;;11.75;8.75;;;;;;;-5.9;48.3623;95774.25;;;;
2022/03/02 04:16:47;;;;;;;11.75;8.75;;;;;;;-5.9;48.3623;95774.25;;;;
2022/03/02 04:17:48;;;;;;;11.75;8.75;;;;;;;-5.9;48.3623;95774.25;;;;
2022/03/02 04:18:48;;;;;;;11.6;8.85;;;;;;;-5.79;48.64355;95772.02;;;;
2022/03/02 04:19:48;;;;;;;11.6;8.85;;;;;;;-5.79;48.64355;95772.02;;;;
2022/03/02 04:20:49;;;;;;;11.6;8.85;;;;;;;-5.79;48.64355;95772.02;;;;
2022/03/02 04:21:50;;;;;;;11.6;8.85;;;;;;;-5.79;48.64355;95772.02;;;;
2022/03/02 04:22:51;;;;;;;11.6;8.85;;;;;;;-5.79;48.64355;95772.02;;;;
2022/03/02 04:23:51;;;;;;;11.6;8.85;;;;;;;-5.79;48.64355;95772.02;;;;
2022/03/02 04:24:52;;;;;;;11.6;8.85;;;;;;;-5.79;48.64355;95772.02;;;;
2022/03/02 04:25:52;;;;;;;11.6;8.85;;;;;;;-5.79;48.64355;95772.02;;;;
2022/03/02 04:26:53;;;;;;;11.6;8.85;;;;;;;-5.79;48.64355;95772.02;;;;
2022/03/02 04:27:54;;;;;;;11.6;8.85;;;;;;;-5.79;48.64355;95772.02;;;;
2022/03/02 04:28:54;;;;;;;11.6;8.85;;;;;;;-5.79;48.64355;95772.02;;;;
2022/03/02 04:29:55;;;;;;;12.25;8.5;;;;;;;-5.4;48.64844;95766.09;;;;
2022/03/02 04:30:55;;;;;;;12.25;8.5;;;;;;;-5.4;48.64844;95766.09;;;;
2022/03/02 04:31:56;;;;;;;12.25;8.5;;;;;;;-5.4;48.64844;95766.09;;;;
2022/03/02 04:32:57;;;;;;;12.25;8.5;;;;;;;-5.4;48.64844;95766.09;;;;
2022/03/02 04:33:57;;;;;;;12.25;8.5;;;;;;;-5.4;48.64844;95766.09;;;;
2022/03/02 04:34:58;;;;;;;12.25;8.5;;;;;;;-5.4;48.64844;95766.09;;;;
2022/03/02 04:35:58;;;;;;;12.25;8.5;;;;;;;-5.4;48.64844;95766.09;;;;
2022/03/02 04:36:59;;;;;;;12.25;8.5;;;;;;;-5.4;48.64844;95766.09;;;;
2022/03/02 04:38:00;;;;;;;12.25;8.5;;;;;;;-5.4;48.64844;95766.09;;;;
2022/03/02 04:39:00;;;;;;;12.25;8.5;;;;;;;-5.4;48.64844;95766.09;;;;
2022/03/02 04:40:01;;;;;;;12.25;8.5;;;;;;;-5.4;48.64844;95766.09;;;;
2022/03/02 04:41:02;;;;;;;11.2;8.549998;;;;;;;-5.19;48.56836;95741.5;;;;
2022/03/02 04:42:03;;;;;;;11.2;8.549998;;;;;;;-5.19;48.56836;95741.5;;;;
2022/03/02 04:43:04;;;;;;;11.2;8.549998;;;;;;;-5.19;48.56836;95741.5;;;;
2022/03/02 04:44:05;;;;;;;11.2;8.549998;;;;;;;-5.19;48.56836;95741.5;;;;
2022/03/02 04:45:06;;;;;;;11.2;8.549998;;;;;;;-5.19;48.56836;95741.5;;;;
2022/03/02 04:46:07;;;;;;;11.2;8.549998;;;;;;;-5.19;48.56836;95741.5;;;;
2022/03/02 04:47:07;;;;;;;11.2;8.549998;;;;;;;-5.19;48.56836;95741.5;;;;
2022/03/02 04:48:08;;;;;;;11.2;8.549998;;;;;;;-5.19;48.56836;95741.5;;;;
2022/03/02 04:49:10;;;;;;;11.2;8.549998;;;;;;;-5.19;48.56836;95741.5;;;;
2022/03/02 04:50:11;;;;;;;11.2;8.549998;;;;;;;-5.19;48.56836;95741.5;;;;
2022/03/02 04:51:12;;;;;;;12.65;8.15;;;;;;;-4.97;48.69824;95736.51;;;;
2022/03/02 04:52:12;;;;;;;12.65;8.15;;;;;;;-4.97;48.69824;95736.51;;;;
2022/03/02 04:53:15;;;;;;;12.65;8.15;;;;;;;-4.97;48.69824;95736.51;;;;
2022/03/02 04:55:05;;;;;;;12.65;8.15;;;;;;;-4.97;48.69824;95736.51;;;;
2022/03/02 04:56:08;;;;;;;12.65;8.15;;;;;;;-4.97;48.69824;95736.51;;;;
2022/03/02 04:57:09;;;;;;;12.65;8.15;;;;;;;-4.97;48.69824;95736.51;;;;
2022/03/02 04:58:10;;;;;;;12.65;8.15;;;;;;;-4.97;48.69824;95736.51;;;;
2022/03/02 04:59:12;;;;;;;12.65;8.15;;;;;;;-4.97;48.69824;95736.51;;;;
2022/03/02 05:00:12;;;;;;;12.65;8.15;;;;;;;-4.97;48.69824;95736.51;;;;
2022/03/02 05:01:16;;;;;;;12.65;8.15;;;;;;;-4.97;48.69824;95736.51;;;;
2022/03/02 05:02:17;;;;;;;10.15;7.85;;;;;;;-4.83;48.71484;95731.31;;;;
2022/03/02 05:03:17;;;;;;;10.15;7.85;;;;;;;-4.83;48.71484;95731.31;;;;
2022/03/02 05:04:18;;;;;;;10.15;7.85;;;;;;;-4.83;48.71484;95731.31;;;;
2022/03/02 05:05:19;;;;;;;10.15;7.85;;;;;;;-4.83;48.71484;95731.31;;;;
2022/03/02 05:06:21;;;;;;;10.15;7.85;;;;;;;-4.83;48.71484;95731.31;;;;
2022/03/02 05:07:21;;;;;;;10.15;7.85;;;;;;;-4.83;48.71484;95731.31;;;;
2022/03/02 05:08:22;;;;;;;10.15;7.85;;;;;;;-4.83;48.71484;95731.31;;;;
2022/03/02 05:09:22;;;;;;;10.15;7.85;;;;;;;-4.83;48.71484;95731.31;;;;
2022/03/02 05:10:23;;;;;;;10.15;7.85;;;;;;;-4.83;48.71484;95731.31;;;;
2022/03/02 05:11:25;;;;;;;10.15;7.85;;;;;;;-4.83;48.71484;95731.31;;;;
2022/03/02 05:12:25;;;;;;;11.2;8.1;;;;;;;-4.66;48.83789;95722.85;;;;
2022/03/02 05:13:26;;;;;;;11.2;8.1;;;;;;;-4.66;48.83789;95722.85;;;;
2022/03/02 05:14:26;;;;;;;11.2;8.1;;;;;;;-4.66;48.83789;95722.85;;;;
2022/03/02 05:15:26;;;;;;;11.2;8.1;;;;;;;-4.66;48.83789;95722.85;;;;
2022/03/02 05:16:27;;;;;;;11.2;8.1;;;;;;;-4.66;48.83789;95722.85;;;;
2022/03/02 05:17:28;;;;;;;11.2;8.1;;;;;;;-4.66;48.83789;95722.85;;;;
2022/03/02 05:18:28;;;;;;;11.2;8.1;;;;;;;-4.66;48.83789;95722.85;;;;
2022/03/02 05:19:29;;;;;;;11.2;8.1;;;;;;;-4.66;48.83789;95722.85;;;;
2022/03/02 05:20:29;;;;;;;11.2;8.1;;;;;;;-4.66;48.83789;95722.85;;;;
2022/03/02 05:21:30;;;;;;;11.2;8.1;;;;;;;-4.66;48.83789;95722.85;;;;
2022/03/02 05:22:30;;;;;;;11.2;8.1;;;;;;;-4.66;48.83789;95722.85;;;;
2022/03/02 05:23:31;;;;;;;11.2;8.1;;;;;;;-4.66;48.83789;95722.85;;;;
2022/03/02 05:24:32;;;;;;;11.2;8.1;;;;;;;-4.66;48.83789;95722.85;;;;
2022/03/02 05:25:33;;;;;;;11.2;8.1;;;;;;;-4.66;48.83789;95722.85;;;;
2022/03/02 05:26:33;;;;;;;11.2;8.1;;;;;;;-4.66;48.83789;95722.85;;;;
2022/03/02 05:27:34;;;;;;;11.2;8.1;;;;;;;-4.66;48.83789;95722.85;;;;
2022/03/02 05:28:36;;;;;;;11.2;8.1;;;;;;;-4.66;48.83789;95722.85;;;;
2022/03/02 05:29:36;;;;;;;11.2;8.1;;;;;;;-4.66;48.83789;95722.85;;;;
2022/03/02 05:30:37;;;;;;;11.2;8.1;;;;;;;-4.66;48.83789;95722.85;;;;
2022/03/02 05:31:38;;;;;;;11.2;8.1;;;;;;;-4.66;48.83789;95722.85;;;;
2022/03/02 05:32:38;;;;;;;11.2;8.1;;;;;;;-4.66;48.83789;95722.85;;;;
2022/03/02 05:33:39;;;;;;;11.2;8.1;;;;;;;-4.66;48.83789;95722.85;;;;
2022/03/02 05:34:40;;;;;;;12.05;7.9;;;;;;;-4.43;48.87402;95721.67;;;;
2022/03/02 05:35:40;;;;;;;12.05;7.9;;;;;;;-4.43;48.87402;95721.67;;;;